createdAt,value
2023-09-12T00:13:18.879Z,14.7
2023-09-12T00:29:01.871Z,14.4
2023-09-12T00:44:44.148Z,15.3
2023-09-12T01:00:26.995Z,15.3
2023-09-12T01:16:09.232Z,16.2
2023-09-12T01:31:51.259Z,16.79
2023-09-12T01:47:33.509Z,16.9
2023-09-12T02:03:15.884Z,17.5
2023-09-12T02:18:58.197Z,17
2023-09-12T02:34:40.370Z,17
2023-09-12T02:50:23.066Z,18.7
2023-09-12T03:06:05.926Z,19.2
2023-09-12T03:21:48.315Z,19.7
2023-09-12T03:37:31.217Z,19.79
2023-09-12T03:53:13.311Z,19.9
2023-09-12T04:08:56.014Z,20.5
2023-09-12T04:24:38.742Z,20.1
2023-09-12T04:40:20.903Z,22.1
2023-09-12T04:41:08.198Z,23.8
2023-09-12T04:56:50.583Z,20.9
2023-09-12T05:12:33.337Z,23.3
2023-09-12T05:28:15.543Z,22.9
2023-09-12T05:43:58.429Z,19.6
2023-09-12T05:59:40.732Z,17.79
2023-09-12T06:15:23.094Z,14.7
2023-09-12T06:31:05.644Z,15.8
2023-09-12T06:46:48.262Z,12.8
2023-09-12T07:02:31.144Z,11.1
2023-09-12T07:33:55.742Z,8.2
2023-09-12T07:49:38.424Z,8.3
2023-09-12T08:05:20.647Z,7.5
2023-09-12T08:21:02.945Z,6.9
2023-09-12T08:36:45.263Z,6.1
2023-09-12T08:52:27.967Z,5.8
2023-09-12T09:08:10.873Z,5
2023-09-12T09:23:53.716Z,6.9
2023-09-12T09:39:36.297Z,5
2023-09-12T09:55:19.089Z,4.9
2023-09-12T10:11:01.231Z,4.9
2023-09-12T10:26:44.189Z,5.1
2023-09-12T10:42:26.764Z,5.3
2023-09-12T10:58:09.119Z,5.2
2023-09-12T11:13:51.423Z,5.1
2023-09-12T11:29:33.763Z,4.8
2023-09-12T11:45:16.098Z,5.5
2023-09-12T12:00:57.991Z,3.8
2023-09-12T12:16:40.016Z,4.69
2023-09-12T12:32:22.562Z,4.6
2023-09-12T12:48:05.649Z,4.5
2023-09-12T13:03:47.991Z,4.5
2023-09-12T13:19:30.634Z,4.4
2023-09-12T13:35:12.630Z,4.1
2023-09-12T13:50:55.117Z,4
2023-09-12T14:06:37.909Z,3.4
2023-09-12T14:22:20.187Z,4
2023-09-12T14:38:02.867Z,4
2023-09-12T14:53:45.409Z,4.1
2023-09-12T15:09:27.821Z,4.19
2023-09-12T15:25:10.562Z,2.9
2023-09-12T15:40:52.352Z,4
2023-09-12T15:56:35.166Z,2.7
2023-09-12T16:12:17.982Z,2.4
2023-09-12T16:28:00.617Z,6
2023-09-12T16:43:43.228Z,2.3
2023-09-12T16:59:25.910Z,2.3
2023-09-12T17:15:08.695Z,2.2
2023-09-12T17:30:51.630Z,2.3
2023-09-12T17:46:33.864Z,2.2
2023-09-12T18:02:15.821Z,2.4
2023-09-12T18:17:58.312Z,3.1
2023-09-12T18:33:40.402Z,2.4
2023-09-12T18:49:22.601Z,2.9
2023-09-12T19:05:05.272Z,2.7
2023-09-12T19:20:47.388Z,3.5
2023-09-12T19:36:30.096Z,3.2
2023-09-12T19:52:12.350Z,3
2023-09-12T20:07:54.329Z,5.4
2023-09-12T20:23:36.718Z,4
2023-09-12T20:39:19.393Z,3.4
2023-09-12T20:55:02.312Z,3.5
2023-09-12T21:10:45.010Z,3.6
2023-09-12T21:26:27.859Z,4.69
2023-09-12T21:42:10.759Z,3.3
2023-09-12T21:57:53.168Z,4.1
2023-09-12T22:13:35.685Z,3.5
2023-09-12T22:29:17.797Z,10.8
2023-09-12T22:45:00.545Z,3.7
2023-09-12T23:00:43.069Z,4.1
2023-09-12T23:16:25.260Z,3.8
2023-09-12T23:32:07.568Z,4.19
2023-09-12T23:47:49.648Z,4.5
